ENST/SSJ METAR and TAF weather

Enter ICAO airport designator
Station Type Date Time Source
ENST METAR 2018/07/15 19:20 UTC NOAA

ENST 151920Z 19009KT 9999 FEW012 SCT022 BKN040 15/12 Q1016 RMK WIND 300FT 17014KT


Station Type Date Time Source
ENST Decoded METAR 2018/07/15 19:20 UTC NOAA

Sandnessjoen / Stokka, Norway (ENST) 65-58N 012-28E 17M
Jul 15, 2018 - 03:20 PM EDT / 2018.07.15 1920 UTC
Wind: from the S (190 degrees) at 10 MPH (9 KT):0
Visibility: greater than 7 mile(s):0
Sky conditions: mostly cloudy
Temperature: 59 F (15 C)
Dew Point: 53 F (12 C)
Relative Humidity: 82%
Pressure (altimeter): 30.00 in. Hg (1016 hPa)
ob: ENST 151920Z 19009KT 9999 FEW012 SCT022 BKN040 15/12 Q1016 RMK WIND 300FT 17014KT
cycle: 19

Station Type Date Time Source
ENST TAF UTC NOAA

Error!


Example: see airport list